SBCZ/CZS METAR and TAF weather

Enter ICAO airport designator
Station Type Date Time Source
SBCZ METAR 2019/02/17 15:00 UTC NOAA

SBCZ 171500Z 00000KT 9999 SCT015 BKN100 30/26 Q1015


Station Type Date Time Source
SBCZ Decoded METAR 2019/02/17 15:00 UTC NOAA

Cruzeiro Do Sul, Brazil (SBCZ) 07-38S 072-40W
Feb 17, 2019 - 10:00 AM EST / 2019.02.17 1500 UTC
Wind: Calm:0
Visibility: greater than 7 mile(s):0
Sky conditions: mostly cloudy
Temperature: 86 F (30 C)
Heat index: 99.3 F (37.4 C):1
Dew Point: 78 F (26 C)
Relative Humidity: 79%
Pressure (altimeter): 29.97 in. Hg (1015 hPa)
ob: SBCZ 171500Z 00000KT 9999 SCT015 BKN100 30/26 Q1015
cycle: 15

Station Type Date Time Source
SBCZ TAF 2019/02/17 12:30 UTC NOAA

TAF SBCZ 171000Z 1712/1812 26005KT 9999 SCT010 TX30/1718Z TN22/1808Z
BECMG 1713/1715 BKN020 FEW020TCU
TEMPO 1716/1718 32008KT 8000 TSRA SCT020 FEW025CB
BECMG 1723/1801 00000KT CAVOK
RMK PCQ


Example: see airport list